^^
Paulen-Weather Station Historical Data
Daily Summary for May 28, 2022 Units:  English    Metric   Both
Daily Weekly Monthly Yearly Custom
  High: Low: Average:
Temperature: 53.6 °F 50 °F 50.5 °F
Dew Point: 41 °F 41 °F 41 °F
Humidity: 72% 65% 69%
Wind Speed: 16.8mph 8.1mph 13.6mph
Wind Gust: 14.9mph - -
Wind- - North
Pressure: 29.8 in 29.7 in -
Precipitation: 0 in    
Historical Graphs
 
 
Tabular Data for May 28, 2022
Time Temperature Dew Point Pressure Wind Wind Speed Wind Gust Humidity Rainfall Rate (Hourly) solar
00:04 51.8 °F 41 °F 29.7 in N 16.8 mph 13 mph 67% 0 in 0 W/m2
00:09 51.8 °F 41 °F 29.7 in N 13 mph 11.2 mph 67% 0 in 0 W/m2
00:14 51.8 °F 41 °F 29.7 in N 14.9 mph 13 mph 67% 0 in 0 W/m2
00:19 51.8 °F 41 °F 29.7 in N 15.5 mph 12.4 mph 67% 0 in 0 W/m2
00:24 51.8 °F 41 °F 29.7 in N 15.5 mph 12.4 mph 68% 0 in 0 W/m2
00:29 50 °F 41 °F 29.7 in N 16.2 mph 11.8 mph 68% 0 in 0 W/m2
00:34 50 °F 41 °F 29.7 in N 16.2 mph 13 mph 68% 0 in 0 W/m2
00:39 51.8 °F 41 °F 29.7 in N 16.2 mph 13.7 mph 69% 0 in 0 W/m2
00:44 51.8 °F 41 °F 29.7 in N 16.8 mph 14.3 mph 68% 0 in 0 W/m2
00:49 51.8 °F 41 °F 29.7 in N 16.8 mph 13.7 mph 68% 0 in 0 W/m2
00:54 51.8 °F 41 °F 29.7 in N 16.2 mph 14.3 mph 68% 0 in 0 W/m2
00:59 50 °F 41 °F 29.7 in N 14.3 mph 11.8 mph 68% 0 in 0 W/m2
01:04 50 °F 41 °F 29.7 in N 16.2 mph 12.4 mph 68% 0 in 0 W/m2
01:09 50 °F 41 °F 29.7 in N 15.5 mph 12.4 mph 68% 0 in 0 W/m2
01:14 50 °F 41 °F 29.7 in N 15.5 mph 12.4 mph 69% 0 in 0 W/m2
01:19 50 °F 41 °F 29.7 in N 14.9 mph 12.4 mph 69% 0 in 0 W/m2
01:24 50 °F 41 °F 29.7 in N 14.9 mph 13 mph 69% 0 in 0 W/m2
01:29 50 °F 41 °F 29.7 in N 14.3 mph 11.8 mph 69% 0 in 0 W/m2
01:34 50 °F 41 °F 29.7 in N 16.8 mph 14.9 mph 69% 0 in 0 W/m2
01:39 50 °F 41 °F 29.7 in N 14.3 mph 13 mph 69% 0 in 0 W/m2
01:44 50 °F 41 °F 29.7 in N 14.3 mph 13 mph 69% 0 in 0 W/m2
01:49 50 °F 41 °F 29.7 in N 14.3 mph 12.4 mph 69% 0 in 0 W/m2
01:54 50 °F 41 °F 29.7 in N 13.7 mph 12.4 mph 69% 0 in 0 W/m2
01:59 50 °F 41 °F 29.7 in N 13 mph 11.8 mph 70% 0 in 0 W/m2
02:04 50 °F 41 °F 29.7 in N 15.5 mph 13 mph 70% 0 in 0 W/m2
02:09 50 °F 41 °F 29.7 in N 14.3 mph 13 mph 71% 0 in 0 W/m2
02:14 50 °F 41 °F 29.7 in N 13.7 mph 13.7 mph 71% 0 in 0 W/m2
02:19 50 °F 41 °F 29.7 in N 13.7 mph 12.4 mph 71% 0 in 0 W/m2
02:24 50 °F 41 °F 29.7 in N 12.4 mph 11.2 mph 72% 0 in 0 W/m2
02:29 50 °F 41 °F 29.7 in N 13 mph 11.8 mph 72% 0 in 0 W/m2
02:34 50 °F 41 °F 29.7 in N 13.7 mph 12.4 mph 71% 0 in 0 W/m2
02:39 50 °F 41 °F 29.7 in N 11.8 mph 10.6 mph 72% 0 in 0 W/m2
02:44 50 °F 41 °F 29.7 in N 11.8 mph 9.9 mph 72% 0 in 0 W/m2
02:49 50 °F 41 °F 29.7 in NNW 9.9 mph 9.9 mph 72% 0 in 0 W/m2
02:54 50 °F 41 °F 29.7 in N 10.6 mph 9.3 mph 71% 0 in 0 W/m2
02:59 50 °F 41 °F 29.7 in NNW 11.2 mph 10.6 mph 70% 0 in 0 W/m2
03:04 50 °F 41 °F 29.7 in N 11.2 mph 8.7 mph 70% 0 in 0 W/m2
03:09 50 °F 41 °F 29.7 in NNW 11.8 mph 9.9 mph 70% 0 in 0 W/m2
03:14 50 °F 41 °F 29.7 in NNW 11.2 mph 9.3 mph 70% 0 in 0 W/m2
03:19 50 °F 41 °F 29.7 in NNW 10.6 mph 9.3 mph 69% 0 in 0 W/m2
03:24 50 °F 41 °F 29.7 in NNW 8.1 mph 7.5 mph 69% 0 in 0 W/m2
03:29 50 °F 41 °F 29.7 in NNW 9.3 mph 9.3 mph 70% 0 in 0 W/m2
03:34 50 °F 41 °F 29.7 in NNW 11.2 mph 9.3 mph 70% 0 in 0 W/m2
03:39 50 °F 41 °F 29.7 in NNW 11.2 mph 9.3 mph 70% 0 in 0 W/m2
03:44 50 °F 41 °F 29.7 in NNW 11.8 mph 11.2 mph 70% 0 in 0 W/m2
03:49 50 °F 41 °F 29.7 in N 12.4 mph 11.8 mph 70% 0 in 0 W/m2
03:54 50 °F 41 °F 29.7 in N 13 mph 12.4 mph 70% 0 in 0 W/m2
03:59 50 °F 41 °F 29.7 in N 11.8 mph 9.9 mph 69% 0 in 0 W/m2
04:04 50 °F 41 °F 29.7 in N 11.2 mph 9.9 mph 70% 0 in 0 W/m2
04:09 50 °F 41 °F 29.7 in N 11.2 mph 9.9 mph 70% 0 in 0 W/m2
04:14 50 °F 41 °F 29.7 in N 11.8 mph 10.6 mph 70% 0 in 0 W/m2
04:19 50 °F 41 °F 29.7 in N 11.8 mph 11.8 mph 69% 0 in 0 W/m2
04:24 50 °F 41 °F 29.7 in N 11.8 mph 10.6 mph 70% 0 in 0 W/m2
04:29 50 °F 41 °F 29.7 in N 14.3 mph 13.7 mph 70% 0 in 0 W/m2
04:34 50 °F 41 °F 29.7 in N 13.7 mph 12.4 mph 70% 0 in 0 W/m2
04:39 50 °F 41 °F 29.7 in N 13 mph 12.4 mph 69% 0 in 0 W/m2
04:44 50 °F 41 °F 29.7 in N 13 mph 11.8 mph 70% 0 in 5 W/m2
04:49 50 °F 41 °F 29.7 in N 13 mph 11.8 mph 71% 0 in 5 W/m2
04:54 50 °F 41 °F 29.7 in N 13 mph 11.8 mph 70% 0 in 7 W/m2
04:59 50 °F 41 °F 29.7 in N 13.7 mph 13 mph 70% 0 in 9 W/m2
05:04 50 °F 41 °F 29.7 in N 13 mph 12.4 mph 70% 0 in 11 W/m2
05:09 50 °F 41 °F 29.7 in N 13.7 mph 11.8 mph 70% 0 in 14 W/m2
05:14 50 °F 41 °F 29.7 in NNW 11.8 mph 11.8 mph 70% 0 in 16 W/m2
05:19 50 °F 41 °F 29.7 in N 11.8 mph 10.6 mph 70% 0 in 19 W/m2
05:24 50 °F 41 °F 29.8 in N 13 mph 12.4 mph 70% 0 in 28 W/m2
05:29 50 °F 41 °F 29.8 in N 14.3 mph 13.7 mph 70% 0 in 40 W/m2
05:34 50 °F 41 °F 29.8 in N 14.3 mph 13 mph 69% 0 in 53 W/m2
05:39 50 °F 41 °F 29.8 in N 14.3 mph 13 mph 69% 0 in 65 W/m2
05:44 50 °F 41 °F 29.8 in N 13 mph 11.8 mph 69% 0 in 77 W/m2
05:49 50 °F 41 °F 29.8 in N 14.9 mph 13.7 mph 68% 0 in 86 W/m2
05:54 50 °F 41 °F 29.8 in N 14.9 mph 12.4 mph 69% 0 in 88 W/m2
05:59 50 °F 41 °F 29.8 in NNW 14.9 mph 13.7 mph 68% 0 in 100 W/m2
06:04 50 °F 41 °F 29.8 in NNW 12.4 mph 11.8 mph 68% 0 in 113 W/m2
06:09 50 °F 41 °F 29.8 in N 12.4 mph 11.2 mph 68% 0 in 121 W/m2
06:14 51.8 °F 41 °F 29.8 in N 14.3 mph 11.8 mph 68% 0 in 132 W/m2
06:19 51.8 °F 41 °F 29.8 in NNW 14.3 mph 12.4 mph 67% 0 in 144 W/m2
06:24 51.8 °F 41 °F 29.8 in NNW 13.7 mph 11.8 mph 67% 0 in 155 W/m2
06:29 51.8 °F 41 °F 29.8 in NNW 14.3 mph 12.4 mph 67% 0 in 167 W/m2
06:34 51.8 °F 41 °F 29.8 in NNW 14.3 mph 12.4 mph 67% 0 in 181 W/m2
06:39 51.8 °F 41 °F 29.8 in N 14.9 mph 13 mph 66% 0 in 188 W/m2
06:44 51.8 °F 41 °F 29.8 in N 14.3 mph 13 mph 65% 0 in 200 W/m2
06:49 51.8 °F 41 °F 29.8 in N 14.9 mph 13.7 mph 65% 0 in 206 W/m2
06:54 51.8 °F 41 °F 29.8 in N 14.9 mph 13.7 mph 66% 0 in 211 W/m2
06:59 51.8 °F 41 °F 29.8 in NNW 16.2 mph 13 mph 66% 0 in 225 W/m2
07:04 53.6 °F 41 °F 29.8 in NNW 15.5 mph 13.7 mph 66% 0 in 236 W/m2
07:09 53.6 °F 41 °F 29.8 in N 14.3 mph 13 mph 65% 0 in 248 W/m2
07:14 53.6 °F 41 °F 29.8 in N 15.5 mph 14.9 mph 65% 0 in 258 W/m2
Compliments of Weather Underground - 2 mb